Time;durP1;ratioP1;P1;durP2;ratioP2;P2;SDS_P1;SDS_P2;PMS_P1;PMS_P2;Temp;Humidity;BMP_temperature;BMP_pressure;BME280_temperature;BME280_humidity;BME280_pressure;Samples;Min_cycle;Max_cycle;Signal;HPM_P1;HPM_P2
2024/01/17 00:02:13;;;;;;;4.35;3.83;;;-3.30;99.90;;;;;;5053394;28;20223;-75
2024/01/17 00:04:40;;;;;;;11.88;5.28;;;-3.50;99.90;;;;;;5055207;28;20291;-76
2024/01/17 00:07:07;;;;;;;7.78;5.38;;;-3.40;99.90;;;;;;5052528;28;20201;-75
2024/01/17 00:09:34;;;;;;;2.70;2.55;;;;;;;;;;5051747;28;20208;-75
2024/01/17 00:12:04;;;;;;;2.80;2.58;;;-3.50;99.90;;;;;;5049145;28;20213;-75
2024/01/17 00:14:31;;;;;;;4.30;3.90;;;-3.50;99.90;;;;;;5050347;27;20209;-76
2024/01/17 00:16:59;;;;;;;5.88;3.50;;;-3.00;99.90;;;;;;5049965;28;20271;-75
2024/01/17 00:19:26;;;;;;;6.00;4.30;;;-3.60;99.90;;;;;;5048318;28;20208;-75
2024/01/17 00:21:53;;;;;;;4.72;4.43;;;-3.40;99.90;;;;;;5057262;28;20200;-75
2024/01/17 00:24:19;;;;;;;7.18;4.20;;;-3.40;99.90;;;;;;5064923;28;20204;-75
2024/01/17 00:26:46;;;;;;;4.05;3.75;;;;;;;;;;5060558;28;20204;-76
2024/01/17 00:29:13;;;;;;;3.53;3.22;;;-2.70;99.90;;;;;;5052315;28;20234;-75
2024/01/17 00:31:40;;;;;;;4.25;3.95;;;-3.30;99.90;;;;;;5061163;28;20201;-76
2024/01/17 00:34:08;;;;;;;12.63;3.80;;;-3.30;99.90;;;;;;5053583;28;20196;-76
2024/01/17 00:36:35;;;;;;;5.22;4.28;;;-3.80;99.90;;;;;;5050508;28;20223;-76
2024/01/17 00:39:02;;;;;;;5.03;4.65;;;-3.20;99.90;;;;;;5044037;28;20204;-76
2024/01/17 00:41:29;;;;;;;5.72;4.95;;;;;;;;;;5039161;28;20235;-76
2024/01/17 00:43:55;;;;;;;6.00;3.13;;;-3.20;96.60;;;;;;5054885;28;20335;-76
2024/01/17 00:46:22;;;;;;;4.43;4.13;;;-3.10;99.90;;;;;;5054928;28;20220;-76
2024/01/17 00:48:49;;;;;;;10.88;6.07;;;-3.10;96.80;;;;;;5055995;27;20223;-76
2024/01/17 00:51:24;;;;;;;4.78;4.35;;;-3.10;96.70;;;;;;5046829;28;20508;-76
2024/01/17 00:53:50;;;;;;;8.73;3.47;;;-2.60;99.90;;;;;;5053010;28;20221;-76
2024/01/17 00:56:17;;;;;;;6.45;4.30;;;-3.10;99.90;;;;;;5045363;28;20292;-76
2024/01/17 00:58:44;;;;;;;4.53;3.30;;;-3.10;97.00;;;;;;5055931;28;20292;-76
2024/01/17 01:01:11;;;;;;;5.70;3.92;;;-3.50;99.90;;;;;;5048069;28;20572;-76
2024/01/17 01:03:37;;;;;;;13.27;5.38;;;-3.10;96.80;;;;;;5053424;28;20589;-75
2024/01/17 01:06:05;;;;;;;6.47;5.97;;;-2.90;96.50;;;;;;5050680;28;20647;-75
2024/01/17 01:08:34;;;;;;;3.40;3.15;;;-2.20;99.90;;;;;;5044362;28;20209;-76
2024/01/17 01:11:00;;;;;;;6.70;5.00;;;-2.80;96.30;;;;;;5043377;28;20648;-76
2024/01/17 01:13:27;;;;;;;4.88;4.30;;;-2.80;95.70;;;;;;5045088;28;20207;-75
2024/01/17 01:15:54;;;;;;;5.20;4.80;;;;;;;;;;5048420;28;20206;-76
2024/01/17 01:18:21;;;;;;;8.57;5.22;;;-2.80;95.70;;;;;;5041963;28;20216;-76
2024/01/17 01:20:48;;;;;;;6.35;4.75;;;;;;;;;;5042953;28;20211;-76
2024/01/17 01:23:15;;;;;;;4.40;4.07;;;-2.90;95.60;;;;;;5037218;28;20203;-75
2024/01/17 01:25:44;;;;;;;5.65;5.00;;;-2.60;95.90;;;;;;5051318;28;20200;-76
2024/01/17 01:28:11;;;;;;;3.10;2.75;;;;;;;;;;5049253;27;20197;-76
2024/01/17 01:30:37;;;;;;;6.10;5.53;;;-2.70;99.90;;;;;;5059230;28;20210;-77
2024/01/17 01:33:05;;;;;;;5.57;3.40;;;-2.70;95.80;;;;;;5049616;28;20204;-76
2024/01/17 01:35:31;;;;;;;4.72;4.32;;;-2.60;99.90;;;;;;5040425;28;20208;-76
2024/01/17 01:37:58;;;;;;;4.43;4.13;;;-2.60;95.60;;;;;;5050214;28;20235;-76
2024/01/17 01:40:25;;;;;;;11.13;4.20;;;-2.60;95.70;;;;;;5051271;28;20214;-76
2024/01/17 01:42:56;;;;;;;4.80;4.40;;;-2.60;95.70;;;;;;5046884;28;20205;-76
2024/01/17 01:45:23;;;;;;;5.50;5.10;;;-2.60;95.70;;;;;;5056907;28;20721;-76
2024/01/17 01:47:50;;;;;;;5.40;4.90;;;-2.60;95.50;;;;;;5056184;28;20219;-76
2024/01/17 01:50:17;;;;;;;5.43;5.03;;;-2.40;99.90;;;;;;5066256;27;20215;-75
2024/01/17 01:52:49;;;;;;;5.63;5.13;;;-2.40;95.80;;;;;;5051113;28;20204;-75
2024/01/17 01:55:16;;;;;;;5.22;4.88;;;-2.40;95.90;;;;;;5052096;28;20215;-75
2024/01/17 01:57:50;;;;;;;9.52;3.75;;;-2.30;95.90;;;;;;5067457;27;20300;-76
2024/01/17 02:00:18;;;;;;;9.38;3.75;;;-2.30;95.90;;;;;;5052913;28;20561;-75
2024/01/17 02:02:46;;;;;;;5.43;3.13;;;-2.30;96.00;;;;;;5053503;28;20671;-76
2024/01/17 02:05:13;;;;;;;3.95;2.92;;;-2.30;95.80;;;;;;5046555;28;20259;-76
2024/01/17 02:07:41;;;;;;;2.95;2.75;;;-2.30;96.00;;;;;;5051442;28;20199;-76
2024/01/17 02:10:09;;;;;;;4.47;4.00;;;-2.20;96.10;;;;;;5047587;28;20204;-76
2024/01/17 02:12:38;;;;;;;6.38;5.63;;;-2.10;95.90;;;;;;5046765;28;20211;-76
2024/01/17 02:15:06;;;;;;;10.27;5.35;;;-2.10;95.70;;;;;;5045518;28;20208;-75
2024/01/17 02:17:34;;;;;;;6.60;5.88;;;-2.10;95.60;;;;;;5044135;28;20219;-76
2024/01/17 02:20:01;;;;;;;3.88;3.63;;;-2.20;99.90;;;;;;5038938;28;20307;-76
2024/01/17 02:22:28;;;;;;;5.80;4.28;;;-2.20;96.30;;;;;;5046676;28;20212;-76
2024/01/17 02:24:56;;;;;;;10.20;4.72;;;-2.20;96.20;;;;;;5046303;28;20211;-75
2024/01/17 02:27:24;;;;;;;4.97;3.10;;;-2.10;96.20;;;;;;5058771;28;20594;-76
2024/01/17 02:29:51;;;;;;;3.50;3.10;;;-2.10;95.80;;;;;;5054644;28;20212;-76
2024/01/17 02:32:17;;;;;;;5.15;3.55;;;-2.10;96.10;;;;;;5041572;28;20244;-77
2024/01/17 02:34:45;;;;;;;3.03;2.88;;;-1.00;99.90;;;;;;5055727;28;20216;-76
2024/01/17 02:37:15;;;;;;;7.80;4.38;;;-1.90;99.90;;;;;;5056432;28;20322;-76
2024/01/17 02:39:43;;;;;;;5.70;3.90;;;-1.90;99.90;;;;;;5054143;28;20210;-76
2024/01/17 02:42:12;;;;;;;5.30;3.53;;;-1.90;96.10;;;;;;5054468;28;20289;-76
2024/01/17 02:44:41;;;;;;;6.63;6.05;;;-1.90;96.00;;;;;;5055927;28;20208;-76
2024/01/17 02:47:12;;;;;;;5.53;2.97;;;-1.80;99.90;;;;;;5050351;28;20212;-76
2024/01/17 02:49:40;;;;;;;7.53;5.13;;;-1.70;99.90;;;;;;5059860;27;20276;-76
2024/01/17 02:52:07;;;;;;;7.28;6.20;;;;;;;;;;5053188;27;20287;-76
2024/01/17 02:54:37;;;;;;;3.60;3.00;;;-1.80;96.00;;;;;;5053651;28;20304;-76
2024/01/17 02:57:04;;;;;;;6.40;5.35;;;-1.80;96.40;;;;;;5053063;27;20210;-76
2024/01/17 02:59:33;;;;;;;5.53;4.95;;;-1.70;96.40;;;;;;5051382;28;20192;-76
2024/01/17 03:01:59;;;;;;;4.05;3.60;;;-1.30;99.90;;;;;;5053490;27;20296;-76
2024/01/17 03:04:27;;;;;;;4.22;3.65;;;;;;;;;;5049538;28;20196;-76
2024/01/17 03:06:53;;;;;;;6.40;4.15;;;-1.60;99.90;;;;;;5053466;27;20192;-76
2024/01/17 03:09:20;;;;;;;5.75;4.35;;;-1.60;97.20;;;;;;5051013;28;20291;-76
2024/01/17 03:11:47;;;;;;;4.85;4.40;;;-1.80;99.90;;;;;;5053782;28;20291;-76
2024/01/17 03:14:14;;;;;;;5.15;4.78;;;-3.00;97.20;;;;;;5047373;28;20641;-76
2024/01/17 03:16:42;;;;;;;4.40;3.97;;;-1.70;98.10;;;;;;5048852;28;20200;-76
2024/01/17 03:19:09;;;;;;;3.92;3.42;;;-1.60;99.90;;;;;;5039947;28;20217;-76
2024/01/17 03:21:35;;;;;;;5.70;5.20;;;-1.80;99.90;;;;;;5047960;28;20232;-76
2024/01/17 03:24:03;;;;;;;3.97;3.17;;;;;;;;;;5048342;28;20287;-76
2024/01/17 03:26:29;;;;;;;4.30;3.92;;;-1.80;99.90;;;;;;5062883;28;20218;-76
2024/01/17 03:28:56;;;;;;;10.27;6.00;;;-1.60;99.90;;;;;;5054187;28;20214;-76
2024/01/17 03:31:25;;;;;;;5.70;4.95;;;-1.70;99.90;;;;;;5065733;28;20212;-76
2024/01/17 03:33:53;;;;;;;7.07;3.95;;;-1.60;99.90;;;;;;5057288;28;20196;-76
2024/01/17 03:36:22;;;;;;;8.57;5.95;;;;;;;;;;5054064;28;20231;-77
2024/01/17 03:38:49;;;;;;;9.65;5.97;;;;;;;;;;5060447;27;20224;-76
2024/01/17 03:41:17;;;;;;;17.15;6.13;;;-1.60;99.40;;;;;;5060387;27;20209;-76
2024/01/17 03:43:44;;;;;;;4.97;3.67;;;-1.60;99.80;;;;;;5060119;28;20648;-76
2024/01/17 03:46:12;;;;;;;5.85;5.28;;;-1.50;99.90;;;;;;5082093;27;20202;-76
2024/01/17 03:48:40;;;;;;;4.82;4.32;;;-1.40;99.90;;;;;;5056936;28;20719;-76
2024/01/17 03:51:09;;;;;;;10.73;5.18;;;0.00;99.90;;;;;;5076723;27;20201;-77
2024/01/17 03:53:36;;;;;;;4.93;4.00;;;-1.20;99.50;;;;;;5060408;28;20192;-76
2024/01/17 03:56:05;;;;;;;4.28;3.78;;;-1.30;99.10;;;;;;5051356;28;20304;-76
2024/01/17 03:58:33;;;;;;;7.50;4.03;;;;;;;;;;5070295;27;20260;-76
2024/01/17 04:01:02;;;;;;;6.93;5.72;;;-1.50;99.50;;;;;;5078383;27;20622;-77
2024/01/17 04:03:30;;;;;;;7.20;6.50;;;-1.40;99.90;;;;;;5078616;27;20637;-76
2024/01/17 04:05:58;;;;;;;4.60;4.07;;;-1.20;99.90;;;;;;5084141;27;20204;-77
2024/01/17 04:08:26;;;;;;;12.68;5.53;;;-1.30;99.90;;;;;;5092809;27;20193;-76
2024/01/17 04:10:54;;;;;;;7.78;5.30;;;-1.40;99.90;;;;;;5073534;27;20286;-76
2024/01/17 04:13:21;;;;;;;16.33;6.95;;;-1.40;99.90;;;;;;5076989;27;20740;-76
2024/01/17 04:15:47;;;;;;;5.85;5.30;;;-1.30;99.90;;;;;;5054280;28;20217;-76
2024/01/17 04:18:14;;;;;;;4.32;3.92;;;-1.10;99.90;;;;;;5050299;28;20694;-76
2024/01/17 04:20:41;;;;;;;7.68;5.55;;;-1.20;99.90;;;;;;5050003;28;20199;-76
2024/01/17 04:23:08;;;;;;;8.45;4.05;;;-1.10;99.90;;;;;;5051011;28;20676;-76
2024/01/17 04:25:36;;;;;;;6.35;4.05;;;-1.10;99.90;;;;;;5051480;27;20260;-76
2024/01/17 04:28:06;;;;;;;4.60;3.75;;;-1.10;99.90;;;;;;5049171;28;20279;-76
2024/01/17 04:30:32;;;;;;;4.63;4.28;;;-1.00;99.90;;;;;;5050467;28;20200;-77
2024/01/17 04:33:00;;;;;;;6.88;4.90;;;-1.00;99.90;;;;;;5043234;28;20265;-77
2024/01/17 04:35:27;;;;;;;5.30;4.53;;;-1.00;99.90;;;;;;5047991;27;20690;-76
2024/01/17 04:37:54;;;;;;;8.40;5.03;;;-0.40;99.90;;;;;;5042696;28;20316;-76
2024/01/17 04:40:21;;;;;;;5.35;4.82;;;-0.90;99.90;;;;;;5047396;28;20210;-76
2024/01/17 04:42:49;;;;;;;8.85;5.68;;;-0.90;99.90;;;;;;5031876;27;20229;-76
2024/01/17 04:45:17;;;;;;;6.68;5.65;;;-0.20;99.90;;;;;;5029212;28;20205;-76
2024/01/17 04:47:44;;;;;;;5.18;4.75;;;-0.90;99.90;;;;;;5035315;28;20208;-76
2024/01/17 04:50:12;;;;;;;5.05;3.95;;;-0.80;99.90;;;;;;5059634;27;20211;-76
2024/01/17 04:52:39;;;;;;;9.93;5.65;;;-0.80;99.90;;;;;;5041241;28;20206;-76
2024/01/17 04:55:07;;;;;;;7.43;4.55;;;-0.70;99.90;;;;;;5046217;28;20281;-77
2024/01/17 04:57:35;;;;;;;7.53;4.68;;;-0.70;99.90;;;;;;5048528;28;20649;-76
2024/01/17 05:00:05;;;;;;;7.70;5.30;;;-0.60;99.90;;;;;;5054417;27;20311;-76
2024/01/17 05:02:32;;;;;;;4.32;3.72;;;-0.70;99.90;;;;;;5051188;28;20264;-76
2024/01/17 05:04:58;;;;;;;8.35;4.05;;;-0.70;99.90;;;;;;5051765;28;20223;-76
2024/01/17 05:07:25;;;;;;;5.82;5.22;;;-0.70;99.90;;;;;;5059400;28;20200;-76
2024/01/17 05:09:52;;;;;;;9.60;5.63;;;-0.70;99.90;;;;;;5056244;28;20203;-77
2024/01/17 05:12:19;;;;;;;5.63;5.10;;;-0.70;99.90;;;;;;5047504;28;20208;-77
2024/01/17 05:14:45;;;;;;;4.82;4.32;;;-0.60;99.90;;;;;;5043571;28;20311;-76
2024/01/17 05:17:15;;;;;;;4.35;3.97;;;-0.70;99.90;;;;;;5048100;28;20208;-76
2024/01/17 05:19:42;;;;;;;8.05;4.20;;;-0.80;99.90;;;;;;5054045;28;20224;-76
2024/01/17 05:22:11;;;;;;;6.65;3.80;;;-0.70;99.90;;;;;;5047610;28;20200;-76
2024/01/17 05:24:38;;;;;;;6.38;5.28;;;-0.70;99.90;;;;;;5051611;28;20200;-76
2024/01/17 05:27:05;;;;;;;6.20;4.78;;;-0.60;99.90;;;;;;5050217;28;20204;-76
2024/01/17 05:29:35;;;;;;;10.10;5.53;;;-0.60;99.90;;;;;;5048477;28;20287;-77
2024/01/17 05:32:02;;;;;;;4.68;4.25;;;-0.60;99.90;;;;;;5047860;28;20218;-76
2024/01/17 05:34:30;;;;;;;8.13;7.30;;;-0.80;99.90;;;;;;5048954;28;20211;-76
2024/01/17 05:36:57;;;;;;;5.50;4.63;;;-0.50;99.90;;;;;;5047715;28;20196;-76
2024/01/17 05:39:24;;;;;;;13.27;5.95;;;-0.60;99.90;;;;;;5044848;28;20572;-76
2024/01/17 05:41:51;;;;;;;6.93;5.43;;;-0.40;99.90;;;;;;5045816;28;20609;-76
2024/01/17 05:44:18;;;;;;;6.47;5.20;;;;;;;;;;5045761;28;20222;-76
2024/01/17 05:46:45;;;;;;;13.18;6.45;;;-0.40;99.90;;;;;;5045067;28;20306;-79
2024/01/17 05:49:12;;;;;;;7.38;6.60;;;-0.40;99.90;;;;;;5072678;27;20210;-79
2024/01/17 05:51:40;;;;;;;10.43;6.35;;;-0.20;99.90;;;;;;5083130;27;20200;-87
2024/01/17 05:54:07;;;;;;;5.20;4.43;;;-0.30;99.90;;;;;;5051530;28;20242;-73
2024/01/17 05:56:35;;;;;;;7.43;6.80;;;-0.30;99.90;;;;;;5054954;27;20208;-73
2024/01/17 05:59:01;;;;;;;7.60;6.00;;;-0.30;99.90;;;;;;5050649;28;20634;-73
2024/01/17 06:01:28;;;;;;;3.55;3.13;;;-0.30;99.90;;;;;;5039831;28;20216;-73
2024/01/17 06:03:55;;;;;;;6.47;5.40;;;-0.20;99.90;;;;;;5040909;28;20210;-75
2024/01/17 06:06:22;;;;;;;14.48;9.63;;;;;;;;;;5044535;28;21100;-77
2024/01/17 06:08:50;;;;;;;11.85;6.38;;;-0.10;99.90;;;;;;5074826;27;20310;-76
2024/01/17 06:11:17;;;;;;;9.88;5.85;;;;;;;;;;5044948;28;20200;-74
2024/01/17 06:13:44;;;;;;;16.58;5.78;;;-0.20;99.90;;;;;;5039927;28;20216;-72
2024/01/17 06:16:11;;;;;;;7.40;6.10;;;;;;;;;;5044027;28;20283;-72
2024/01/17 06:18:38;;;;;;;10.35;5.72;;;-0.20;99.90;;;;;;5050637;28;20614;-72
2024/01/17 06:21:05;;;;;;;8.07;5.30;;;-0.70;99.90;;;;;;5043094;28;20287;-72
2024/01/17 06:23:32;;;;;;;8.35;6.50;;;-0.20;99.90;;;;;;5050889;28;21165;-71
2024/01/17 06:26:00;;;;;;;7.28;5.13;;;-0.30;99.90;;;;;;5049549;28;20298;-71
2024/01/17 06:28:27;;;;;;;4.65;3.95;;;-0.20;99.90;;;;;;5049146;28;20295;-75
2024/01/17 06:30:54;;;;;;;4.47;4.07;;;;;;;;;;5047519;28;20212;-69
2024/01/17 06:33:21;;;;;;;5.38;4.30;;;;;;;;;;5045004;28;20293;-72
2024/01/17 06:35:49;;;;;;;4.50;4.20;;;-0.10;99.90;;;;;;5045501;28;20219;-72
2024/01/17 06:38:16;;;;;;;6.35;4.93;;;;;;;;;;5046774;28;20200;-72
2024/01/17 06:40:43;;;;;;;7.07;4.70;;;0.00;99.90;;;;;;5049056;28;20968;-76
2024/01/17 06:43:11;;;;;;;9.32;6.32;;;-0.30;99.90;;;;;;5047826;28;20292;-74
2024/01/17 06:45:38;;;;;;;5.07;4.00;;;0.00;99.90;;;;;;5051146;28;20201;-73
2024/01/17 06:48:05;;;;;;;8.60;5.53;;;0.10;99.90;;;;;;5047826;28;20676;-73
2024/01/17 06:50:32;;;;;;;6.75;5.68;;;0.10;99.90;;;;;;5075640;27;20195;-72
2024/01/17 06:52:59;;;;;;;6.07;5.47;;;0.10;99.90;;;;;;5056315;28;20209;-72
2024/01/17 06:55:26;;;;;;;8.55;5.40;;;;;;;;;;5055681;28;20209;-74
2024/01/17 06:57:53;;;;;;;6.57;4.53;;;;;;;;;;5051742;27;20211;-74
2024/01/17 07:00:21;;;;;;;10.52;6.13;;;-2.00;99.90;;;;;;5044239;27;20705;-74
2024/01/17 07:02:48;;;;;;;5.53;5.03;;;0.10;99.90;;;;;;5045426;28;20209;-74
2024/01/17 07:05:15;;;;;;;4.47;4.05;;;0.40;99.90;;;;;;5050411;28;20307;-74
2024/01/17 07:07:42;;;;;;;7.75;4.68;;;;;;;;;;5038070;27;20272;-74
2024/01/17 07:10:10;;;;;;;5.90;5.30;;;0.40;99.90;;;;;;5058299;27;20235;-73
2024/01/17 07:12:39;;;;;;;6.07;4.47;;;0.40;99.90;;;;;;5043162;28;20195;-74
2024/01/17 07:15:06;;;;;;;6.47;4.00;;;0.30;99.90;;;;;;5058518;27;20685;-73
2024/01/17 07:17:34;;;;;;;6.82;4.97;;;0.30;99.90;;;;;;5044765;27;20288;-74
2024/01/17 07:20:01;;;;;;;9.98;6.03;;;0.50;99.90;;;;;;5053681;28;20594;-74
2024/01/17 07:22:28;;;;;;;11.13;4.32;;;;;;;;;;5041989;27;20626;-75
2024/01/17 07:24:55;;;;;;;8.60;6.30;;;0.20;99.90;;;;;;5045345;28;20216;-74
2024/01/17 07:27:22;;;;;;;10.48;6.10;;;0.30;99.90;;;;;;5047237;28;20215;-73
2024/01/17 07:29:48;;;;;;;11.15;5.75;;;0.80;99.90;;;;;;5048429;27;20187;-73
2024/01/17 07:32:15;;;;;;;8.57;6.18;;;0.50;99.90;;;;;;5058051;27;20200;-73
2024/01/17 07:34:44;;;;;;;15.07;6.70;;;-1.50;99.90;;;;;;5048477;27;20209;-74
2024/01/17 07:37:10;;;;;;;8.20;5.82;;;0.70;99.90;;;;;;5045967;27;20200;-74
2024/01/17 07:39:38;;;;;;;32.75;6.07;;;0.70;99.90;;;;;;5041762;27;20220;-74
2024/01/17 07:42:05;;;;;;;5.32;4.85;;;0.60;99.90;;;;;;5036963;27;20209;-74
2024/01/17 07:44:33;;;;;;;6.93;6.25;;;0.60;99.90;;;;;;5029690;27;20208;-71
2024/01/17 07:47:00;;;;;;;5.82;5.32;;;;;;;;;;5044661;28;20211;-72
2024/01/17 07:49:27;;;;;;;9.90;4.70;;;0.80;99.90;;;;;;5048416;27;20211;-71
2024/01/17 07:51:55;;;;;;;6.82;3.83;;;0.80;99.90;;;;;;5058768;28;20291;-72
2024/01/17 07:54:23;;;;;;;5.45;4.88;;;0.90;99.90;;;;;;5044377;28;20203;-72
2024/01/17 07:56:50;;;;;;;9.35;7.30;;;0.90;99.90;;;;;;5058967;27;20687;-72
2024/01/17 07:59:17;;;;;;;5.68;5.25;;;1.00;99.90;;;;;;5056657;28;20251;-72
2024/01/17 08:01:44;;;;;;;8.75;5.93;;;1.00;99.90;;;;;;5061135;27;20203;-72
2024/01/17 08:04:11;;;;;;;6.80;4.93;;;;;;;;;;5050499;28;20201;-72
2024/01/17 08:06:38;;;;;;;7.75;5.13;;;1.00;99.90;;;;;;5059906;27;20247;-72
2024/01/17 08:09:20;;;;;;;5.22;3.63;;;0.90;99.90;;;;;;5052324;28;20603;-72
2024/01/17 08:11:48;;;;;;;4.85;4.43;;;;;;;;;;5053386;28;20188;-72
2024/01/17 08:14:16;;;;;;;5.07;4.57;;;1.20;99.90;;;;;;5052534;28;20200;-72
2024/01/17 08:16:44;;;;;;;11.57;7.20;;;1.20;99.90;;;;;;5047139;28;20568;-72
2024/01/17 08:19:11;;;;;;;6.95;6.20;;;1.20;99.90;;;;;;5054382;28;20756;-72
2024/01/17 08:21:38;;;;;;;9.60;4.18;;;1.40;99.90;;;;;;5052035;28;20287;-72
2024/01/17 08:24:06;;;;;;;6.90;5.13;;;1.40;99.90;;;;;;5046161;28;20295;-72
2024/01/17 08:26:33;;;;;;;7.70;5.00;;;1.40;99.90;;;;;;5031409;28;20288;-70
2024/01/17 08:29:01;;;;;;;8.52;4.60;;;1.60;99.90;;;;;;5036603;28;20196;-72
2024/01/17 08:31:28;;;;;;;4.25;3.88;;;;;;;;;;5045013;28;20724;-72
2024/01/17 08:33:56;;;;;;;7.15;5.00;;;;;;;;;;5051269;28;20299;-72
2024/01/17 08:36:23;;;;;;;4.95;4.45;;;;;;;;;;5039363;27;20210;-72
2024/01/17 08:38:50;;;;;;;29.50;5.10;;;0.80;99.90;;;;;;5049817;28;20603;-72
2024/01/17 08:41:20;;;;;;;13.20;5.90;;;1.50;99.90;;;;;;5048533;27;20228;-72
2024/01/17 08:43:47;;;;;;;8.13;5.13;;;1.30;99.90;;;;;;5060698;27;20204;-73
2024/01/17 08:46:14;;;;;;;7.10;5.50;;;1.40;99.90;;;;;;5039364;27;20200;-72
2024/01/17 08:48:42;;;;;;;6.53;4.72;;;1.20;99.90;;;;;;5047762;28;20319;-73
2024/01/17 08:51:09;;;;;;;8.23;5.53;;;1.50;99.90;;;;;;5042992;28;20206;-74
2024/01/17 08:53:36;;;;;;;7.35;5.93;;;;;;;;;;5045300;28;20209;-75
2024/01/17 08:56:05;;;;;;;5.32;3.00;;;1.60;99.90;;;;;;5042154;28;20233;-74
2024/01/17 08:58:33;;;;;;;6.32;4.97;;;1.70;99.90;;;;;;5041105;28;20257;-74
2024/01/17 09:01:01;;;;;;;4.72;3.22;;;1.80;99.90;;;;;;5053049;27;20224;-73
2024/01/17 09:03:29;;;;;;;8.40;4.60;;;1.80;99.90;;;;;;5053121;27;20290;-73
2024/01/17 09:05:56;;;;;;;6.68;6.07;;;;;;;;;;5068086;27;20201;-74
2024/01/17 09:08:23;;;;;;;3.35;3.03;;;;;;;;;;5046055;28;20292;-73
2024/01/17 09:10:50;;;;;;;8.88;5.03;;;;;;;;;;5051029;28;20208;-72
2024/01/17 09:13:17;;;;;;;4.03;3.83;;;0.50;99.90;;;;;;5043161;28;20211;-73
2024/01/17 09:15:46;;;;;;;4.43;3.83;;;2.00;99.90;;;;;;5049729;28;20201;-72
2024/01/17 09:18:17;;;;;;;8.10;5.10;;;;;;;;;;5058158;27;20221;-73
2024/01/17 09:20:44;;;;;;;3.65;2.55;;;0.90;99.90;;;;;;5063117;27;20655;-73
2024/01/17 09:23:11;;;;;;;4.20;3.90;;;;;;;;;;5055637;27;20203;-73
2024/01/17 09:25:38;;;;;;;4.07;3.70;;;2.00;99.90;;;;;;5048836;27;20288;-73
2024/01/17 09:28:06;;;;;;;6.60;4.50;;;2.10;99.90;;;;;;5041923;27;20638;-73
2024/01/17 09:30:33;;;;;;;9.45;5.28;;;1.90;99.90;;;;;;5047018;27;20589;-73
2024/01/17 09:33:01;;;;;;;10.98;4.80;;;2.10;99.90;;;;;;5046610;27;20208;-73
2024/01/17 09:35:32;;;;;;;6.50;5.43;;;2.70;99.90;;;;;;5042887;27;20730;-73
2024/01/17 09:37:59;;;;;;;9.85;5.88;;;2.00;99.90;;;;;;5045183;27;20603;-73
2024/01/17 09:40:26;;;;;;;4.13;3.83;;;;;;;;;;5070402;27;20307;-72
2024/01/17 09:42:54;;;;;;;5.07;3.58;;;2.20;99.90;;;;;;5043765;28;20216;-72
2024/01/17 09:45:23;;;;;;;3.90;3.28;;;2.20;99.90;;;;;;5042332;28;20606;-72
2024/01/17 09:47:54;;;;;;;5.35;3.67;;;2.50;99.90;;;;;;5037842;28;20221;-72
2024/01/17 09:50:22;;;;;;;4.35;3.20;;;2.30;99.90;;;;;;5050420;27;20193;-72
2024/01/17 09:52:50;;;;;;;3.83;2.85;;;2.50;99.90;;;;;;5049733;27;20309;-72
2024/01/17 09:55:20;;;;;;;7.20;3.85;;;2.60;99.90;;;;;;5042831;28;20286;-72
2024/01/17 09:57:52;;;;;;;8.95;3.97;;;2.60;99.90;;;;;;5049802;27;20235;-72
2024/01/17 10:00:19;;;;;;;4.50;2.90;;;2.60;99.90;;;;;;5072526;27;20234;-72
2024/01/17 10:02:48;;;;;;;3.85;2.28;;;2.40;99.90;;;;;;5045993;28;20293;-72
2024/01/17 10:05:17;;;;;;;6.57;4.18;;;2.70;99.90;;;;;;5048979;28;20605;-73
2024/01/17 10:07:45;;;;;;;4.10;2.13;;;2.50;99.90;;;;;;5080874;27;20625;-72
2024/01/17 10:10:12;;;;;;;2.63;2.42;;;;;;;;;;5063407;27;20699;-72
2024/01/17 10:12:41;;;;;;;3.42;2.60;;;2.50;99.90;;;;;;5064288;27;20202;-73
2024/01/17 10:15:12;;;;;;;3.78;2.83;;;2.70;99.90;;;;;;5056665;27;20295;-72
2024/01/17 10:17:39;;;;;;;5.00;3.17;;;2.10;99.90;;;;;;5080402;27;20211;-73
2024/01/17 10:20:07;;;;;;;2.95;2.40;;;;;;;;;;5055243;27;20318;-73
2024/01/17 10:22:35;;;;;;;4.95;2.92;;;;;;;;;;5053229;27;20238;-72
2024/01/17 10:25:03;;;;;;;6.07;3.88;;;2.40;99.90;;;;;;5059267;27;20317;-72
2024/01/17 10:27:30;;;;;;;4.80;2.80;;;;;;;;;;5059332;27;20207;-72
2024/01/17 10:29:57;;;;;;;5.97;3.50;;;2.70;99.90;;;;;;5052097;27;20207;-72
2024/01/17 10:32:24;;;;;;;4.53;4.07;;;2.60;99.90;;;;;;5040441;28;20207;-70
2024/01/17 10:34:52;;;;;;;3.45;3.17;;;2.80;99.90;;;;;;5043988;28;20237;-71
2024/01/17 10:37:19;;;;;;;4.63;4.22;;;3.00;99.90;;;;;;5046308;28;20209;-71
2024/01/17 10:39:46;;;;;;;7.53;4.30;;;2.80;99.90;;;;;;5044617;28;20588;-71
2024/01/17 10:42:21;;;;;;;6.72;3.78;;;2.80;99.90;;;;;;5037670;28;20652;-71
2024/01/17 10:44:47;;;;;;;6.03;4.47;;;2.80;99.90;;;;;;5037988;28;20211;-71
2024/01/17 10:47:14;;;;;;;7.40;4.75;;;2.90;99.90;;;;;;5035621;28;20214;-71
2024/01/17 10:49:43;;;;;;;5.65;4.20;;;2.70;99.90;;;;;;5039818;28;20211;-71
2024/01/17 10:52:14;;;;;;;6.78;4.72;;;2.70;99.90;;;;;;5044896;28;20206;-71
2024/01/17 10:54:49;;;;;;;6.47;4.55;;;2.80;99.90;;;;;;5042494;27;20207;-71
2024/01/17 10:57:16;;;;;;;5.35;4.65;;;2.80;99.90;;;;;;5041082;28;20210;-71
2024/01/17 10:59:47;;;;;;;5.30;4.03;;;2.80;99.90;;;;;;5061564;27;20220;-70
2024/01/17 11:02:19;;;;;;;6.20;5.60;;;2.60;99.90;;;;;;5036593;28;20226;-71
2024/01/17 11:04:47;;;;;;;4.90;4.50;;;2.70;99.90;;;;;;5036867;28;20206;-71
2024/01/17 11:07:16;;;;;;;5.97;4.70;;;2.80;99.90;;;;;;5037811;28;20774;-70
2024/01/17 11:09:46;;;;;;;4.45;3.45;;;2.70;99.90;;;;;;5037040;28;20216;-71
2024/01/17 11:12:15;;;;;;;6.07;3.53;;;3.40;99.90;;;;;;5050681;27;20214;-70
2024/01/17 11:14:44;;;;;;;8.93;5.70;;;;;;;;;;5044495;27;20210;-70
2024/01/17 11:17:10;;;;;;;4.05;3.75;;;;;;;;;;5047546;27;20212;-70
2024/01/17 11:19:40;;;;;;;11.10;6.15;;;2.80;99.90;;;;;;5046352;27;20206;-71
2024/01/17 11:22:06;;;;;;;5.93;5.32;;;2.80;99.90;;;;;;5043106;27;20674;-70
2024/01/17 11:24:41;;;;;;;7.93;7.05;;;3.10;99.90;;;;;;5041371;27;20206;-71
2024/01/17 11:27:17;;;;;;;6.15;4.40;;;2.90;99.90;;;;;;5051611;28;20292;-70
2024/01/17 11:29:52;;;;;;;7.97;4.55;;;3.00;99.90;;;;;;5049032;28;20298;-71
2024/01/17 11:32:23;;;;;;;5.50;4.30;;;2.80;99.90;;;;;;5049450;28;20206;-71
2024/01/17 11:34:49;;;;;;;5.50;4.80;;;2.90;99.90;;;;;;5046032;28;20211;-70
2024/01/17 11:37:29;;;;;;;5.40;4.65;;;2.90;99.90;;;;;;5043251;28;20300;-71
2024/01/17 11:39:57;;;;;;;4.45;3.95;;;2.90;99.90;;;;;;5045750;28;20226;-70
2024/01/17 11:42:24;;;;;;;4.60;4.07;;;2.90;99.90;;;;;;5052082;27;20205;-70
2024/01/17 11:44:53;;;;;;;4.30;4.00;;;3.00;99.90;;;;;;5054791;27;20210;-69
2024/01/17 11:47:21;;;;;;;5.82;5.25;;;;;;;;;;5047106;28;20311;-72
2024/01/17 11:49:48;;;;;;;3.92;3.53;;;3.30;99.90;;;;;;5042941;28;20206;-72
2024/01/17 11:52:27;;;;;;;5.03;4.28;;;3.40;99.90;;;;;;5043897;28;20287;-71
2024/01/17 11:54:55;;;;;;;4.55;3.20;;;3.50;99.90;;;;;;5062851;27;20220;-72
2024/01/17 11:57:22;;;;;;;7.47;3.50;;;;;;;;;;5066791;28;20202;-72
2024/01/17 12:00:06;;;;;;;3.78;3.47;;;3.70;99.90;;;;;;5050190;28;20216;-76
2024/01/17 12:02:37;;;;;;;6.97;4.18;;;3.50;99.90;;;;;;5065215;27;20208;-72
2024/01/17 12:05:05;;;;;;;12.68;4.68;;;3.40;99.90;;;;;;5047139;28;20204;-71
2024/01/17 12:07:32;;;;;;;5.30;3.83;;;;;;;;;;5046286;28;20209;-70
2024/01/17 12:09:59;;;;;;;2.70;2.50;;;3.60;99.90;;;;;;5050889;28;20213;-70
2024/01/17 12:12:26;;;;;;;10.10;4.85;;;;;;;;;;5060544;28;20249;-72
2024/01/17 12:14:53;;;;;;;3.50;1.92;;;3.50;99.90;;;;;;5058669;28;20643;-72
2024/01/17 12:17:22;;;;;;;2.25;2.05;;;3.70;99.90;;;;;;5050941;27;20204;-72
2024/01/17 12:19:51;;;;;;;1.50;1.35;;;3.90;99.90;;;;;;5054173;28;20212;-72
2024/01/17 12:22:19;;;;;;;4.18;1.90;;;;;;;;;;5051943;28;20229;-72
2024/01/17 12:24:46;;;;;;;1.65;1.55;;;4.00;99.90;;;;;;5054680;27;20284;-73
2024/01/17 12:27:13;;;;;;;2.03;1.83;;;;;;;;;;5047041;28;20293;-73
2024/01/17 12:29:40;;;;;;;2.70;1.70;;;;;;;;;;5046428;28;20229;-73
2024/01/17 12:32:07;;;;;;;1.77;1.67;;;4.00;99.90;;;;;;5049995;28;20205;-73
2024/01/17 12:34:35;;;;;;;2.00;1.65;;;4.20;99.90;;;;;;5051556;28;20218;-73
2024/01/17 12:37:03;;;;;;;3.03;2.78;;;;;;;;;;5045254;28;20305;-73
2024/01/17 12:39:30;;;;;;;4.63;3.92;;;;;;;;;;5042580;27;20613;-73
2024/01/17 12:41:57;;;;;;;2.22;2.03;;;4.70;99.90;;;;;;5059156;27;20235;-73
2024/01/17 12:44:24;;;;;;;3.75;1.60;;;4.30;99.90;;;;;;5034461;28;20200;-73
2024/01/17 12:46:52;;;;;;;5.10;2.85;;;;;;;;;;5034372;28;20219;-73
2024/01/17 12:49:21;;;;;;;1.95;1.85;;;4.60;99.90;;;;;;5037066;27;20232;-73
2024/01/17 12:51:50;;;;;;;3.25;2.72;;;4.70;99.90;;;;;;5042864;28;20195;-73
2024/01/17 12:54:19;;;;;;;3.22;1.83;;;4.30;99.90;;;;;;5044123;28;20206;-73
2024/01/17 12:56:46;;;;;;;5.38;1.42;;;;;;;;;;5050900;28;20234;-73
2024/01/17 12:59:15;;;;;;;3.05;1.67;;;4.90;99.90;;;;;;5043901;28;20295;-73
2024/01/17 13:01:42;;;;;;;1.73;1.33;;;4.60;99.90;;;;;;5037356;28;20230;-70
2024/01/17 13:04:09;;;;;;;2.63;1.33;;;4.80;99.90;;;;;;5058426;28;20565;-73
2024/01/17 13:06:45;;;;;;;1.40;1.30;;;5.10;99.90;;;;;;5057513;28;20290;-71
2024/01/17 13:09:18;;;;;;;3.00;1.75;;;5.00;99.90;;;;;;5054312;27;20286;-73
2024/01/17 13:11:49;;;;;;;3.00;1.55;;;5.10;99.90;;;;;;5055841;28;20227;-73